sensor_id;sensor_type;location;lat;lon;timestamp;temperature;humidity
12604;DHT22;6367;52.508;13.284;2022-11-02T00:00:15;14.60;99.90
12604;DHT22;6367;52.508;13.284;2022-11-02T00:02:41;14.50;99.90
12604;DHT22;6367;52.508;13.284;2022-11-02T00:05:10;14.40;99.90
12604;DHT22;6367;52.508;13.284;2022-11-02T00:07:36;14.40;99.90
12604;DHT22;6367;52.508;13.284;2022-11-02T00:10:01;14.40;99.90
12604;DHT22;6367;52.508;13.284;2022-11-02T00:12:27;14.40;99.90
12604;DHT22;6367;52.508;13.284;2022-11-02T00:14:52;14.40;99.90
12604;DHT22;6367;52.508;13.284;2022-11-02T00:17:18;14.30;99.90
12604;DHT22;6367;52.508;13.284;2022-11-02T00:19:44;14.40;99.90
12604;DHT22;6367;52.508;13.284;2022-11-02T00:22:09;14.70;99.90
12604;DHT22;6367;52.508;13.284;2022-11-02T00:24:35;14.20;99.90
12604;DHT22;6367;52.508;13.284;2022-11-02T00:27:01;14.10;99.90
12604;DHT22;6367;52.508;13.284;2022-11-02T00:29:27;14.20;99.90
12604;DHT22;6367;52.508;13.284;2022-11-02T00:31:52;14.30;99.90
12604;DHT22;6367;52.508;13.284;2022-11-02T00:34:18;14.30;99.90
12604;DHT22;6367;52.508;13.284;2022-11-02T00:36:43;14.20;99.90
12604;DHT22;6367;52.508;13.284;2022-11-02T00:39:09;14.40;99.90
12604;DHT22;6367;52.508;13.284;2022-11-02T00:41:35;14.20;99.90
12604;DHT22;6367;52.508;13.284;2022-11-02T00:44:00;14.20;99.90
12604;DHT22;6367;52.508;13.284;2022-11-02T00:46:26;14.30;99.90
12604;DHT22;6367;52.508;13.284;2022-11-02T00:48:51;14.20;99.90
12604;DHT22;6367;52.508;13.284;2022-11-02T00:51:17;14.10;99.90
12604;DHT22;6367;52.508;13.284;2022-11-02T00:53:42;14.40;99.90
12604;DHT22;6367;52.508;13.284;2022-11-02T00:56:08;14.10;99.90
12604;DHT22;6367;52.508;13.284;2022-11-02T00:58:34;14.00;99.90
12604;DHT22;6367;52.508;13.284;2022-11-02T01:01:04;14.00;99.90
12604;DHT22;6367;52.508;13.284;2022-11-02T01:03:29;13.90;99.90
12604;DHT22;6367;52.508;13.284;2022-11-02T01:05:55;13.90;99.90
12604;DHT22;6367;52.508;13.284;2022-11-02T01:08:20;14.00;99.90
12604;DHT22;6367;52.508;13.284;2022-11-02T01:10:46;13.90;99.90
12604;DHT22;6367;52.508;13.284;2022-11-02T01:13:11;13.90;99.90
12604;DHT22;6367;52.508;13.284;2022-11-02T01:15:37;13.90;99.90
12604;DHT22;6367;52.508;13.284;2022-11-02T01:18:02;13.80;99.90
12604;DHT22;6367;52.508;13.284;2022-11-02T01:20:28;13.80;99.90
12604;DHT22;6367;52.508;13.284;2022-11-02T01:22:54;13.80;99.90
12604;DHT22;6367;52.508;13.284;2022-11-02T01:25:19;13.80;99.90
12604;DHT22;6367;52.508;13.284;2022-11-02T01:27:45;13.80;99.90
12604;DHT22;6367;52.508;13.284;2022-11-02T01:30:11;13.70;99.90
12604;DHT22;6367;52.508;13.284;2022-11-02T01:32:36;13.70;99.90
12604;DHT22;6367;52.508;13.284;2022-11-02T01:35:02;13.80;99.90
12604;DHT22;6367;52.508;13.284;2022-11-02T01:37:28;13.80;99.90
12604;DHT22;6367;52.508;13.284;2022-11-02T01:39:53;13.70;99.90
12604;DHT22;6367;52.508;13.284;2022-11-02T01:42:22;13.70;99.90
12604;DHT22;6367;52.508;13.284;2022-11-02T01:44:48;13.60;99.90
12604;DHT22;6367;52.508;13.284;2022-11-02T01:47:21;13.60;99.90
12604;DHT22;6367;52.508;13.284;2022-11-02T01:49:51;13.50;99.90
12604;DHT22;6367;52.508;13.284;2022-11-02T01:52:25;13.70;99.90
12604;DHT22;6367;52.508;13.284;2022-11-02T01:54:58;13.60;99.90
12604;DHT22;6367;52.508;13.284;2022-11-02T01:57:25;13.60;99.90
12604;DHT22;6367;52.508;13.284;2022-11-02T01:59:59;13.60;99.90
12604;DHT22;6367;52.508;13.284;2022-11-02T02:02:28;14.00;99.90
12604;DHT22;6367;52.508;13.284;2022-11-02T02:05:02;14.00;99.90
12604;DHT22;6367;52.508;13.284;2022-11-02T02:07:29;13.70;99.90
12604;DHT22;6367;52.508;13.284;2022-11-02T02:09:55;13.60;99.90
12604;DHT22;6367;52.508;13.284;2022-11-02T02:12:22;13.50;99.90
12604;DHT22;6367;52.508;13.284;2022-11-02T02:14:48;13.40;99.90
12604;DHT22;6367;52.508;13.284;2022-11-02T02:20:00;13.50;99.90
12604;DHT22;6367;52.508;13.284;2022-11-02T02:30:25;13.50;99.90
12604;DHT22;6367;52.508;13.284;2022-11-02T02:33:00;13.40;99.90
12604;DHT22;6367;52.508;13.284;2022-11-02T02:35:39;13.30;99.90
12604;DHT22;6367;52.508;13.284;2022-11-02T02:38:16;13.20;99.90
12604;DHT22;6367;52.508;13.284;2022-11-02T02:44:02;13.20;99.90
12604;DHT22;6367;52.508;13.284;2022-11-02T02:48:56;13.30;99.90
12604;DHT22;6367;52.508;13.284;2022-11-02T02:51:26;13.30;99.90
12604;DHT22;6367;52.508;13.284;2022-11-02T02:53:59;13.30;99.90
12604;DHT22;6367;52.508;13.284;2022-11-02T02:56:29;13.20;99.90
12604;DHT22;6367;52.508;13.284;2022-11-02T02:59:04;13.10;99.90
12604;DHT22;6367;52.508;13.284;2022-11-02T03:01:31;13.10;99.90
12604;DHT22;6367;52.508;13.284;2022-11-02T03:03:58;13.10;99.90
12604;DHT22;6367;52.508;13.284;2022-11-02T03:06:27;13.10;99.90
12604;DHT22;6367;52.508;13.284;2022-11-02T03:11:49;13.10;99.90
12604;DHT22;6367;52.508;13.284;2022-11-02T03:14:38;13.00;99.90
12604;DHT22;6367;52.508;13.284;2022-11-02T03:17:17;13.10;99.90
12604;DHT22;6367;52.508;13.284;2022-11-02T03:19:52;13.00;99.90
12604;DHT22;6367;52.508;13.284;2022-11-02T03:24:57;12.90;99.90
12604;DHT22;6367;52.508;13.284;2022-11-02T03:30:21;13.00;99.90
12604;DHT22;6367;52.508;13.284;2022-11-02T03:33:15;13.00;99.90
12604;DHT22;6367;52.508;13.284;2022-11-02T03:38:55;12.80;99.90
12604;DHT22;6367;52.508;13.284;2022-11-02T03:41:23;12.80;99.90
12604;DHT22;6367;52.508;13.284;2022-11-02T03:43:54;12.80;99.90
12604;DHT22;6367;52.508;13.284;2022-11-02T03:46:21;12.60;99.90
12604;DHT22;6367;52.508;13.284;2022-11-02T03:48:48;12.70;99.90
12604;DHT22;6367;52.508;13.284;2022-11-02T03:51:18;12.60;99.90
12604;DHT22;6367;52.508;13.284;2022-11-02T03:53:57;13.00;99.90
12604;DHT22;6367;52.508;13.284;2022-11-02T03:56:30;12.60;99.90
12604;DHT22;6367;52.508;13.284;2022-11-02T03:58:57;12.90;99.90
12604;DHT22;6367;52.508;13.284;2022-11-02T04:01:23;12.60;99.90
12604;DHT22;6367;52.508;13.284;2022-11-02T04:03:49;12.50;99.90
12604;DHT22;6367;52.508;13.284;2022-11-02T04:06:15;12.60;99.90
12604;DHT22;6367;52.508;13.284;2022-11-02T04:08:43;12.30;99.90
12604;DHT22;6367;52.508;13.284;2022-11-02T04:11:11;13.00;99.90
12604;DHT22;6367;52.508;13.284;2022-11-02T04:13:55;12.50;99.90
12604;DHT22;6367;52.508;13.284;2022-11-02T04:16:39;12.40;99.90
12604;DHT22;6367;52.508;13.284;2022-11-02T04:19:05;12.40;99.90
12604;DHT22;6367;52.508;13.284;2022-11-02T04:21:49;12.40;99.90
12604;DHT22;6367;52.508;13.284;2022-11-02T04:24:34;12.40;99.90
12604;DHT22;6367;52.508;13.284;2022-11-02T04:27:18;12.40;99.90
12604;DHT22;6367;52.508;13.284;2022-11-02T04:29:43;12.40;99.90
12604;DHT22;6367;52.508;13.284;2022-11-02T04:32:09;12.40;99.90
12604;DHT22;6367;52.508;13.284;2022-11-02T04:34:35;12.50;99.90
12604;DHT22;6367;52.508;13.284;2022-11-02T04:37:00;12.30;99.90
12604;DHT22;6367;52.508;13.284;2022-11-02T04:39:46;12.30;99.90
12604;DHT22;6367;52.508;13.284;2022-11-02T04:42:12;12.50;99.90
12604;DHT22;6367;52.508;13.284;2022-11-02T04:44:38;12.60;99.90
12604;DHT22;6367;52.508;13.284;2022-11-02T04:47:03;12.40;99.90
12604;DHT22;6367;52.508;13.284;2022-11-02T04:49:29;12.40;99.90
12604;DHT22;6367;52.508;13.284;2022-11-02T04:51:55;12.40;99.90
12604;DHT22;6367;52.508;13.284;2022-11-02T04:54:20;12.40;99.90
12604;DHT22;6367;52.508;13.284;2022-11-02T04:56:46;12.40;99.90
12604;DHT22;6367;52.508;13.284;2022-11-02T04:59:12;12.30;99.90
12604;DHT22;6367;52.508;13.284;2022-11-02T05:01:37;12.30;99.90
12604;DHT22;6367;52.508;13.284;2022-11-02T05:04:03;12.30;99.90
12604;DHT22;6367;52.508;13.284;2022-11-02T05:06:29;12.40;99.90
12604;DHT22;6367;52.508;13.284;2022-11-02T05:08:55;12.40;99.90
12604;DHT22;6367;52.508;13.284;2022-11-02T05:11:20;12.40;99.90
12604;DHT22;6367;52.508;13.284;2022-11-02T05:13:46;12.40;99.90
12604;DHT22;6367;52.508;13.284;2022-11-02T05:16:14;12.50;99.90
12604;DHT22;6367;52.508;13.284;2022-11-02T05:18:40;12.50;99.90
12604;DHT22;6367;52.508;13.284;2022-11-02T05:21:06;12.50;99.90
12604;DHT22;6367;52.508;13.284;2022-11-02T05:23:32;12.50;99.90
12604;DHT22;6367;52.508;13.284;2022-11-02T05:26:00;12.50;99.90
12604;DHT22;6367;52.508;13.284;2022-11-02T05:28:27;12.40;99.90
12604;DHT22;6367;52.508;13.284;2022-11-02T05:30:53;12.30;99.90
12604;DHT22;6367;52.508;13.284;2022-11-02T05:33:19;12.30;99.90
12604;DHT22;6367;52.508;13.284;2022-11-02T05:35:46;12.20;99.90
12604;DHT22;6367;52.508;13.284;2022-11-02T05:38:11;12.30;99.90
12604;DHT22;6367;52.508;13.284;2022-11-02T05:40:37;12.20;99.90
12604;DHT22;6367;52.508;13.284;2022-11-02T05:43:06;12.20;99.90
12604;DHT22;6367;52.508;13.284;2022-11-02T05:45:32;12.20;99.90
12604;DHT22;6367;52.508;13.284;2022-11-02T05:48:02;12.20;99.90
12604;DHT22;6367;52.508;13.284;2022-11-02T05:50:28;12.10;99.90
12604;DHT22;6367;52.508;13.284;2022-11-02T05:52:54;12.20;99.90
12604;DHT22;6367;52.508;13.284;2022-11-02T05:55:20;12.20;99.90
12604;DHT22;6367;52.508;13.284;2022-11-02T05:57:53;12.30;99.90
12604;DHT22;6367;52.508;13.284;2022-11-02T06:00:20;12.20;99.90
12604;DHT22;6367;52.508;13.284;2022-11-02T06:02:47;12.30;99.90
12604;DHT22;6367;52.508;13.284;2022-11-02T06:05:13;12.20;99.90
12604;DHT22;6367;52.508;13.284;2022-11-02T06:07:38;12.20;99.90
12604;DHT22;6367;52.508;13.284;2022-11-02T06:10:04;12.20;99.90
12604;DHT22;6367;52.508;13.284;2022-11-02T06:12:30;12.20;99.90
12604;DHT22;6367;52.508;13.284;2022-11-02T06:14:56;12.20;99.90
12604;DHT22;6367;52.508;13.284;2022-11-02T06:17:21;12.30;99.90
12604;DHT22;6367;52.508;13.284;2022-11-02T06:19:47;12.30;99.90
12604;DHT22;6367;52.508;13.284;2022-11-02T06:22:12;12.20;99.90
12604;DHT22;6367;52.508;13.284;2022-11-02T06:24:38;12.20;99.90
12604;DHT22;6367;52.508;13.284;2022-11-02T06:27:03;12.20;99.90
12604;DHT22;6367;52.508;13.284;2022-11-02T06:29:29;12.50;99.90
12604;DHT22;6367;52.508;13.284;2022-11-02T06:31:55;12.20;99.90
12604;DHT22;6367;52.508;13.284;2022-11-02T06:34:20;12.60;99.90
12604;DHT22;6367;52.508;13.284;2022-11-02T06:36:46;12.30;99.90
12604;DHT22;6367;52.508;13.284;2022-11-02T06:39:11;12.20;99.90
12604;DHT22;6367;52.508;13.284;2022-11-02T06:41:37;12.20;99.90
12604;DHT22;6367;52.508;13.284;2022-11-02T06:44:02;12.30;99.90
12604;DHT22;6367;52.508;13.284;2022-11-02T06:46:28;12.30;99.90
12604;DHT22;6367;52.508;13.284;2022-11-02T06:48:54;12.30;99.90
12604;DHT22;6367;52.508;13.284;2022-11-02T06:51:19;12.30;99.90
12604;DHT22;6367;52.508;13.284;2022-11-02T06:53:45;12.30;99.90
12604;DHT22;6367;52.508;13.284;2022-11-02T06:56:10;12.30;99.90
12604;DHT22;6367;52.508;13.284;2022-11-02T06:58:36;12.30;99.90
12604;DHT22;6367;52.508;13.284;2022-11-02T07:01:04;12.40;99.90
12604;DHT22;6367;52.508;13.284;2022-11-02T07:03:32;12.40;99.90
12604;DHT22;6367;52.508;13.284;2022-11-02T07:05:58;12.40;99.90
12604;DHT22;6367;52.508;13.284;2022-11-02T07:08:24;12.50;99.90
12604;DHT22;6367;52.508;13.284;2022-11-02T07:10:50;12.60;99.90
12604;DHT22;6367;52.508;13.284;2022-11-02T07:13:16;12.60;99.90
12604;DHT22;6367;52.508;13.284;2022-11-02T07:15:41;12.60;99.90
12604;DHT22;6367;52.508;13.284;2022-11-02T07:18:07;12.50;99.90
12604;DHT22;6367;52.508;13.284;2022-11-02T07:20:34;12.60;99.90
12604;DHT22;6367;52.508;13.284;2022-11-02T07:23:00;12.60;99.90
12604;DHT22;6367;52.508;13.284;2022-11-02T07:25:28;12.70;99.90
12604;DHT22;6367;52.508;13.284;2022-11-02T07:28:00;12.60;99.90
12604;DHT22;6367;52.508;13.284;2022-11-02T07:30:28;12.90;99.90
12604;DHT22;6367;52.508;13.284;2022-11-02T07:32:54;12.70;99.90
12604;DHT22;6367;52.508;13.284;2022-11-02T07:35:20;12.70;99.90
12604;DHT22;6367;52.508;13.284;2022-11-02T07:38:01;12.80;99.90
12604;DHT22;6367;52.508;13.284;2022-11-02T07:40:28;12.90;99.90
12604;DHT22;6367;52.508;13.284;2022-11-02T07:42:55;13.10;99.90
12604;DHT22;6367;52.508;13.284;2022-11-02T07:45:21;13.20;99.90
12604;DHT22;6367;52.508;13.284;2022-11-02T07:47:48;13.30;99.90
12604;DHT22;6367;52.508;13.284;2022-11-02T07:50:16;13.60;99.90
12604;DHT22;6367;52.508;13.284;2022-11-02T07:52:46;13.50;99.90
12604;DHT22;6367;52.508;13.284;2022-11-02T07:55:13;13.50;99.90
12604;DHT22;6367;52.508;13.284;2022-11-02T07:57:39;13.60;99.90
12604;DHT22;6367;52.508;13.284;2022-11-02T08:00:05;13.80;99.90
12604;DHT22;6367;52.508;13.284;2022-11-02T08:02:31;13.90;99.90
12604;DHT22;6367;52.508;13.284;2022-11-02T08:04:57;14.00;99.90
12604;DHT22;6367;52.508;13.284;2022-11-02T08:07:22;14.00;99.90
12604;DHT22;6367;52.508;13.284;2022-11-02T08:09:48;14.10;99.90
12604;DHT22;6367;52.508;13.284;2022-11-02T08:12:13;14.20;99.90
12604;DHT22;6367;52.508;13.284;2022-11-02T08:14:39;14.30;99.90
12604;DHT22;6367;52.508;13.284;2022-11-02T08:17:04;14.20;99.90
12604;DHT22;6367;52.508;13.284;2022-11-02T08:19:30;14.30;99.90
12604;DHT22;6367;52.508;13.284;2022-11-02T08:21:55;14.40;99.90
12604;DHT22;6367;52.508;13.284;2022-11-02T08:24:21;14.30;99.90
12604;DHT22;6367;52.508;13.284;2022-11-02T08:26:47;14.40;99.90
12604;DHT22;6367;52.508;13.284;2022-11-02T08:29:12;14.50;99.90
12604;DHT22;6367;52.508;13.284;2022-11-02T08:31:38;14.60;99.90
12604;DHT22;6367;52.508;13.284;2022-11-02T08:34:03;14.50;99.90
12604;DHT22;6367;52.508;13.284;2022-11-02T08:36:29;14.60;99.90
12604;DHT22;6367;52.508;13.284;2022-11-02T08:38:54;14.90;99.90
12604;DHT22;6367;52.508;13.284;2022-11-02T08:41:20;14.70;99.90
12604;DHT22;6367;52.508;13.284;2022-11-02T08:43:45;14.80;99.90
12604;DHT22;6367;52.508;13.284;2022-11-02T08:46:11;14.80;99.90
12604;DHT22;6367;52.508;13.284;2022-11-02T08:48:36;14.80;99.90
12604;DHT22;6367;52.508;13.284;2022-11-02T08:51:02;15.10;99.90
12604;DHT22;6367;52.508;13.284;2022-11-02T08:53:29;14.90;99.90
12604;DHT22;6367;52.508;13.284;2022-11-02T08:55:58;14.90;99.90
12604;DHT22;6367;52.508;13.284;2022-11-02T08:58:24;14.90;99.90
12604;DHT22;6367;52.508;13.284;2022-11-02T09:00:51;14.90;99.90
12604;DHT22;6367;52.508;13.284;2022-11-02T09:03:17;15.40;99.90
12604;DHT22;6367;52.508;13.284;2022-11-02T09:05:45;15.20;99.90
12604;DHT22;6367;52.508;13.284;2022-11-02T09:08:19;15.20;99.90
12604;DHT22;6367;52.508;13.284;2022-11-02T09:10:49;15.30;99.90
12604;DHT22;6367;52.508;13.284;2022-11-02T09:13:15;15.50;99.90
12604;DHT22;6367;52.508;13.284;2022-11-02T09:15:47;15.60;99.90
12604;DHT22;6367;52.508;13.284;2022-11-02T09:18:13;16.00;99.90
12604;DHT22;6367;52.508;13.284;2022-11-02T09:20:39;15.90;99.90
12604;DHT22;6367;52.508;13.284;2022-11-02T09:23:05;15.90;99.90
12604;DHT22;6367;52.508;13.284;2022-11-02T09:25:30;16.10;99.90
12604;DHT22;6367;52.508;13.284;2022-11-02T09:27:57;16.20;99.90
12604;DHT22;6367;52.508;13.284;2022-11-02T09:30:23;16.50;99.90
12604;DHT22;6367;52.508;13.284;2022-11-02T09:32:57;16.50;99.90
12604;DHT22;6367;52.508;13.284;2022-11-02T09:35:23;16.60;99.90
12604;DHT22;6367;52.508;13.284;2022-11-02T09:37:49;16.60;99.90
12604;DHT22;6367;52.508;13.284;2022-11-02T09:40:22;16.80;99.90
12604;DHT22;6367;52.508;13.284;2022-11-02T09:43:02;16.80;99.90
12604;DHT22;6367;52.508;13.284;2022-11-02T09:45:32;16.90;99.90
12604;DHT22;6367;52.508;13.284;2022-11-02T09:48:06;17.00;99.90
12604;DHT22;6367;52.508;13.284;2022-11-02T09:50:48;17.10;99.90
12604;DHT22;6367;52.508;13.284;2022-11-02T09:53:21;17.10;99.90
12604;DHT22;6367;52.508;13.284;2022-11-02T09:55:53;17.30;99.90
12604;DHT22;6367;52.508;13.284;2022-11-02T09:58:29;17.30;99.90
12604;DHT22;6367;52.508;13.284;2022-11-02T10:06:44;17.30;99.90
12604;DHT22;6367;52.508;13.284;2022-11-02T10:09:21;17.50;99.90
12604;DHT22;6367;52.508;13.284;2022-11-02T10:12:13;17.40;99.90
12604;DHT22;6367;52.508;13.284;2022-11-02T10:14:53;17.50;99.90
12604;DHT22;6367;52.508;13.284;2022-11-02T10:17:29;17.60;99.90
12604;DHT22;6367;52.508;13.284;2022-11-02T10:20:01;17.70;99.90
12604;DHT22;6367;52.508;13.284;2022-11-02T10:22:38;17.80;99.90
12604;DHT22;6367;52.508;13.284;2022-11-02T10:25:05;17.80;99.90
12604;DHT22;6367;52.508;13.284;2022-11-02T10:27:38;18.00;99.90
12604;DHT22;6367;52.508;13.284;2022-11-02T10:32:30;17.90;99.90
12604;DHT22;6367;52.508;13.284;2022-11-02T10:34:58;18.00;99.80
12604;DHT22;6367;52.508;13.284;2022-11-02T10:53:50;18.50;98.50
12604;DHT22;6367;52.508;13.284;2022-11-02T10:58:53;18.80;97.70
12604;DHT22;6367;52.508;13.284;2022-11-02T11:01:20;18.80;97.70
12604;DHT22;6367;52.508;13.284;2022-11-02T11:03:52;18.80;97.40
12604;DHT22;6367;52.508;13.284;2022-11-02T11:06:18;19.00;97.20
12604;DHT22;6367;52.508;13.284;2022-11-02T11:08:45;19.10;96.60
12604;DHT22;6367;52.508;13.284;2022-11-02T11:11:22;19.00;96.90
12604;DHT22;6367;52.508;13.284;2022-11-02T11:13:55;18.90;96.90
12604;DHT22;6367;52.508;13.284;2022-11-02T11:16:37;18.90;97.00
12604;DHT22;6367;52.508;13.284;2022-11-02T11:19:06;18.80;97.00
12604;DHT22;6367;52.508;13.284;2022-11-02T11:21:40;18.80;97.10
12604;DHT22;6367;52.508;13.284;2022-11-02T11:29:38;18.50;97.60
12604;DHT22;6367;52.508;13.284;2022-11-02T11:32:25;18.50;97.70
12604;DHT22;6367;52.508;13.284;2022-11-02T11:35:13;18.50;97.50
12604;DHT22;6367;52.508;13.284;2022-11-02T11:37:58;18.40;97.80
12604;DHT22;6367;52.508;13.284;2022-11-02T11:40:26;18.30;97.50
12604;DHT22;6367;52.508;13.284;2022-11-02T11:42:55;18.60;97.60
12604;DHT22;6367;52.508;13.284;2022-11-02T11:45:30;18.20;97.50
12604;DHT22;6367;52.508;13.284;2022-11-02T11:48:16;18.30;97.40
12604;DHT22;6367;52.508;13.284;2022-11-02T11:50:49;18.30;97.50
12604;DHT22;6367;52.508;13.284;2022-11-02T11:53:24;18.30;97.60
12604;DHT22;6367;52.508;13.284;2022-11-02T11:55:57;18.30;97.40
12604;DHT22;6367;52.508;13.284;2022-11-02T11:58:28;18.30;97.40
12604;DHT22;6367;52.508;13.284;2022-11-02T12:03:55;18.20;97.10
12604;DHT22;6367;52.508;13.284;2022-11-02T12:06:41;18.10;97.30
12604;DHT22;6367;52.508;13.284;2022-11-02T12:12:35;18.20;97.50
12604;DHT22;6367;52.508;13.284;2022-11-02T12:23:53;18.20;97.90
12604;DHT22;6367;52.508;13.284;2022-11-02T12:26:30;18.30;97.70
12604;DHT22;6367;52.508;13.284;2022-11-02T12:31:39;18.40;96.80
12604;DHT22;6367;52.508;13.284;2022-11-02T12:36:59;18.40;96.90
12604;DHT22;6367;52.508;13.284;2022-11-02T12:39:47;18.60;93.70
12604;DHT22;6367;52.508;13.284;2022-11-02T12:42:24;18.70;93.00
12604;DHT22;6367;52.508;13.284;2022-11-02T12:45:34;18.80;92.50
12604;DHT22;6367;52.508;13.284;2022-11-02T12:48:04;18.70;92.40
12604;DHT22;6367;52.508;13.284;2022-11-02T12:53:32;18.70;92.00
12604;DHT22;6367;52.508;13.284;2022-11-02T12:56:01;18.70;92.00
12604;DHT22;6367;52.508;13.284;2022-11-02T12:58:30;19.10;91.50
12604;DHT22;6367;52.508;13.284;2022-11-02T13:01:19;18.80;91.10
12604;DHT22;6367;52.508;13.284;2022-11-02T13:03:57;18.70;90.50
12604;DHT22;6367;52.508;13.284;2022-11-02T13:06:45;18.60;90.50
12604;DHT22;6367;52.508;13.284;2022-11-02T13:09:32;18.50;90.20
12604;DHT22;6367;52.508;13.284;2022-11-02T13:12:12;18.60;90.00
12604;DHT22;6367;52.508;13.284;2022-11-02T13:14:45;18.50;89.30
12604;DHT22;6367;52.508;13.284;2022-11-02T13:17:20;18.60;89.30
12604;DHT22;6367;52.508;13.284;2022-11-02T13:19:50;18.50;89.80
12604;DHT22;6367;52.508;13.284;2022-11-02T13:22:20;18.50;90.10
12604;DHT22;6367;52.508;13.284;2022-11-02T13:24:52;18.40;90.30
12604;DHT22;6367;52.508;13.284;2022-11-02T13:27:33;18.40;90.60
12604;DHT22;6367;52.508;13.284;2022-11-02T13:30:20;18.30;90.80
12604;DHT22;6367;52.508;13.284;2022-11-02T13:33:02;18.40;90.90
12604;DHT22;6367;52.508;13.284;2022-11-02T13:35:36;18.40;91.00
12604;DHT22;6367;52.508;13.284;2022-11-02T13:40:48;18.30;91.30
12604;DHT22;6367;52.508;13.284;2022-11-02T13:46:22;18.40;91.40
12604;DHT22;6367;52.508;13.284;2022-11-02T13:52:11;18.60;91.00
12604;DHT22;6367;52.508;13.284;2022-11-02T13:54:44;18.70;91.00
12604;DHT22;6367;52.508;13.284;2022-11-02T13:57:33;18.60;90.80
12604;DHT22;6367;52.508;13.284;2022-11-02T14:00:01;18.50;91.30
12604;DHT22;6367;52.508;13.284;2022-11-02T14:02:30;18.60;91.20
12604;DHT22;6367;52.508;13.284;2022-11-02T14:04:58;18.60;91.00
12604;DHT22;6367;52.508;13.284;2022-11-02T14:07:28;18.50;91.10
12604;DHT22;6367;52.508;13.284;2022-11-02T14:10:02;18.40;91.40
12604;DHT22;6367;52.508;13.284;2022-11-02T14:12:40;18.40;91.50
12604;DHT22;6367;52.508;13.284;2022-11-02T14:20:40;18.30;91.90
12604;DHT22;6367;52.508;13.284;2022-11-02T14:25:57;18.20;92.00
12604;DHT22;6367;52.508;13.284;2022-11-02T14:28:29;18.20;92.10
12604;DHT22;6367;52.508;13.284;2022-11-02T14:44:32;18.00;91.50
12604;DHT22;6367;52.508;13.284;2022-11-02T14:47:06;18.10;90.80
12604;DHT22;6367;52.508;13.284;2022-11-02T14:49:38;18.10;90.20
12604;DHT22;6367;52.508;13.284;2022-11-02T14:52:38;18.00;90.10
12604;DHT22;6367;52.508;13.284;2022-11-02T14:58:04;17.90;88.80
12604;DHT22;6367;52.508;13.284;2022-11-02T15:00:53;17.90;88.70
12604;DHT22;6367;52.508;13.284;2022-11-02T15:06:19;17.80;89.00
12604;DHT22;6367;52.508;13.284;2022-11-02T15:08:59;17.80;88.80
12604;DHT22;6367;52.508;13.284;2022-11-02T15:11:41;17.70;88.90
12604;DHT22;6367;52.508;13.284;2022-11-02T15:14:30;17.80;88.60
12604;DHT22;6367;52.508;13.284;2022-11-02T15:16:55;17.70;88.90
12604;DHT22;6367;52.508;13.284;2022-11-02T15:19:41;18.10;89.20
12604;DHT22;6367;52.508;13.284;2022-11-02T15:22:35;17.60;89.00
12604;DHT22;6367;52.508;13.284;2022-11-02T15:27:41;17.50;89.20
12604;DHT22;6367;52.508;13.284;2022-11-02T15:30:13;17.50;89.30
12604;DHT22;6367;52.508;13.284;2022-11-02T15:35:36;17.40;89.60
12604;DHT22;6367;52.508;13.284;2022-11-02T15:38:03;17.50;89.80
12604;DHT22;6367;52.508;13.284;2022-11-02T15:43:41;17.30;90.10
12604;DHT22;6367;52.508;13.284;2022-11-02T15:49:41;17.20;90.40
12604;DHT22;6367;52.508;13.284;2022-11-02T15:52:16;17.30;90.30
12604;DHT22;6367;52.508;13.284;2022-11-02T15:55:31;17.30;90.20
12604;DHT22;6367;52.508;13.284;2022-11-02T16:00:31;17.20;90.50
12604;DHT22;6367;52.508;13.284;2022-11-02T16:03:02;17.10;90.50
12604;DHT22;6367;52.508;13.284;2022-11-02T16:05:32;17.40;90.70
12604;DHT22;6367;52.508;13.284;2022-11-02T16:07:58;17.00;90.90
12604;DHT22;6367;52.508;13.284;2022-11-02T16:12:58;17.00;90.40
12604;DHT22;6367;52.508;13.284;2022-11-02T16:15:25;16.90;90.60
12604;DHT22;6367;52.508;13.284;2022-11-02T16:17:50;16.90;90.50
12604;DHT22;6367;52.508;13.284;2022-11-02T16:20:20;16.90;90.40
12604;DHT22;6367;52.508;13.284;2022-11-02T16:23:03;16.90;90.50
12604;DHT22;6367;52.508;13.284;2022-11-02T16:28:23;16.80;90.40
12604;DHT22;6367;52.508;13.284;2022-11-02T16:33:44;16.70;90.70
12604;DHT22;6367;52.508;13.284;2022-11-02T16:36:15;16.70;90.70
12604;DHT22;6367;52.508;13.284;2022-11-02T16:38:46;16.70;90.80
12604;DHT22;6367;52.508;13.284;2022-11-02T16:41:13;17.10;91.00
12604;DHT22;6367;52.508;13.284;2022-11-02T16:43:42;16.60;90.80
12604;DHT22;6367;52.508;13.284;2022-11-02T16:46:08;16.60;90.90
12604;DHT22;6367;52.508;13.284;2022-11-02T16:48:34;16.60;90.90
12604;DHT22;6367;52.508;13.284;2022-11-02T16:51:21;16.50;90.90
12604;DHT22;6367;52.508;13.284;2022-11-02T16:53:46;16.50;91.00
12604;DHT22;6367;52.508;13.284;2022-11-02T16:56:26;16.50;91.10
12604;DHT22;6367;52.508;13.284;2022-11-02T16:59:01;16.50;91.00
12604;DHT22;6367;52.508;13.284;2022-11-02T17:01:36;16.50;91.00
12604;DHT22;6367;52.508;13.284;2022-11-02T17:04:23;16.40;90.90
12604;DHT22;6367;52.508;13.284;2022-11-02T17:06:52;16.40;90.90
12604;DHT22;6367;52.508;13.284;2022-11-02T17:11:44;16.40;91.20
12604;DHT22;6367;52.508;13.284;2022-11-02T17:14:10;16.30;91.00
12604;DHT22;6367;52.508;13.284;2022-11-02T17:19:45;16.30;91.00
12604;DHT22;6367;52.508;13.284;2022-11-02T17:22:22;16.30;91.00
12604;DHT22;6367;52.508;13.284;2022-11-02T17:25:02;16.20;91.10
12604;DHT22;6367;52.508;13.284;2022-11-02T17:27:29;16.20;91.00
12604;DHT22;6367;52.508;13.284;2022-11-02T17:29:58;16.20;91.10
12604;DHT22;6367;52.508;13.284;2022-11-02T17:32:23;16.50;91.30
12604;DHT22;6367;52.508;13.284;2022-11-02T17:34:54;16.20;91.10
12604;DHT22;6367;52.508;13.284;2022-11-02T17:37:22;16.20;90.90
12604;DHT22;6367;52.508;13.284;2022-11-02T17:39:49;16.50;91.10
12604;DHT22;6367;52.508;13.284;2022-11-02T17:42:15;16.20;91.00
12604;DHT22;6367;52.508;13.284;2022-11-02T17:45:22;16.10;91.20
12604;DHT22;6367;52.508;13.284;2022-11-02T17:47:48;16.00;91.30
12604;DHT22;6367;52.508;13.284;2022-11-02T17:50:14;16.00;91.30
12604;DHT22;6367;52.508;13.284;2022-11-02T17:52:40;16.00;91.30
12604;DHT22;6367;52.508;13.284;2022-11-02T17:55:08;16.00;91.40
12604;DHT22;6367;52.508;13.284;2022-11-02T17:57:37;16.00;91.40
12604;DHT22;6367;52.508;13.284;2022-11-02T18:00:02;15.90;91.60
12604;DHT22;6367;52.508;13.284;2022-11-02T18:02:28;15.90;91.60
12604;DHT22;6367;52.508;13.284;2022-11-02T18:04:54;16.40;91.80
12604;DHT22;6367;52.508;13.284;2022-11-02T18:07:19;15.90;91.70
12604;DHT22;6367;52.508;13.284;2022-11-02T18:09:45;15.80;91.70
12604;DHT22;6367;52.508;13.284;2022-11-02T18:12:14;15.80;91.80
12604;DHT22;6367;52.508;13.284;2022-11-02T18:14:40;15.80;91.80
12604;DHT22;6367;52.508;13.284;2022-11-02T18:17:06;15.80;91.80